createdAt,value
2023-01-20T00:01:24.247Z,1.60
2023-01-20T00:03:53.051Z,1.50
2023-01-20T00:06:20.052Z,1.50
2023-01-20T00:08:51.106Z,1.50
2023-01-20T00:11:18.004Z,1.60
2023-01-20T00:13:45.456Z,1.70
2023-01-20T00:16:13.698Z,1.70
2023-01-20T00:18:40.998Z,1.70
2023-01-20T00:21:10.961Z,1.70
2023-01-20T00:23:38.621Z,1.70
2023-01-20T00:26:11.060Z,1.70
2023-01-20T00:28:38.391Z,1.60
2023-01-20T00:31:15.198Z,1.60
2023-01-20T00:33:42.410Z,1.50
2023-01-20T00:36:10.389Z,1.40
2023-01-20T00:38:37.133Z,1.50
2023-01-20T00:41:04.463Z,1.40
2023-01-20T00:43:31.202Z,1.40
2023-01-20T00:45:58.010Z,1.40
2023-01-20T00:48:24.791Z,1.30
2023-01-20T00:50:51.519Z,1.40
2023-01-20T00:53:18.340Z,1.30
2023-01-20T00:55:45.857Z,1.30
2023-01-20T00:58:12.635Z,1.40
2023-01-20T01:00:39.581Z,1.40
2023-01-20T01:03:06.375Z,1.40
2023-01-20T01:05:33.776Z,1.40
2023-01-20T01:08:00.585Z,1.50
2023-01-20T01:10:28.512Z,1.40
2023-01-20T01:12:55.259Z,1.40
2023-01-20T01:15:22.062Z,1.30
2023-01-20T01:17:48.877Z,1.30
2023-01-20T01:20:15.847Z,1.30
2023-01-20T01:22:42.604Z,1.20
2023-01-20T01:25:09.726Z,1.20
2023-01-20T01:27:37.054Z,1.20
2023-01-20T01:30:04.720Z,1.20
2023-01-20T01:32:47.508Z,1.10
2023-01-20T01:35:14.450Z,1.20
2023-01-20T01:37:41.303Z,1.10
2023-01-20T01:40:08.853Z,1.10
2023-01-20T01:42:36.169Z,1.10
2023-01-20T01:45:11.971Z,1.10
2023-01-20T01:47:49.942Z,1.10
2023-01-20T01:50:24.623Z,1.00
2023-01-20T01:52:54.044Z,1.00
2023-01-20T01:55:25.756Z,1.00
2023-01-20T01:57:54.208Z,1.00
2023-01-20T02:00:21.094Z,1.00
2023-01-20T02:02:48.080Z,1.00
2023-01-20T02:05:17.390Z,1.00
2023-01-20T02:07:46.312Z,1.10
2023-01-20T02:10:13.804Z,1.00
2023-01-20T02:12:42.324Z,1.00
2023-01-20T02:15:09.934Z,0.90
2023-01-20T02:17:58.286Z,1.00
2023-01-20T02:20:27.818Z,1.00
2023-01-20T02:23:27.961Z,1.00
2023-01-20T02:26:16.691Z,1.00
2023-01-20T02:28:58.951Z,0.90
2023-01-20T02:31:44.521Z,1.00
2023-01-20T02:34:50.934Z,1.00
2023-01-20T02:37:23.778Z,1.00
2023-01-20T02:39:50.544Z,1.00
2023-01-20T02:42:27.894Z,1.10
2023-01-20T02:45:04.593Z,1.10
2023-01-20T02:47:40.570Z,1.20
2023-01-20T02:50:48.442Z,1.20
2023-01-20T02:53:16.673Z,1.30
2023-01-20T02:55:52.051Z,1.30
2023-01-20T02:58:41.694Z,1.30
2023-01-20T03:01:17.047Z,1.30
2023-01-20T03:03:46.442Z,1.30
2023-01-20T03:06:22.403Z,1.30
2023-01-20T03:08:52.362Z,1.30
2023-01-20T03:11:19.896Z,1.30
2023-01-20T03:13:58.056Z,1.20
2023-01-20T03:16:27.636Z,1.20
2023-01-20T03:18:55.244Z,1.20
2023-01-20T03:21:22.759Z,1.20
2023-01-20T03:23:53.199Z,1.20
2023-01-20T03:26:21.806Z,1.20
2023-01-20T03:28:49.190Z,1.20
2023-01-20T03:31:21.339Z,1.20
2023-01-20T03:33:51.682Z,1.20
2023-01-20T03:36:20.560Z,1.20
2023-01-20T03:38:47.841Z,1.20
2023-01-20T03:41:47.323Z,1.20
2023-01-20T03:44:35.602Z,1.20
2023-01-20T03:47:20.949Z,1.10
2023-01-20T03:49:56.683Z,1.00
2023-01-20T03:52:46.944Z,1.00
2023-01-20T03:55:28.826Z,0.90
2023-01-20T03:58:01.683Z,0.90
2023-01-20T04:00:31.339Z,1.00
2023-01-20T04:03:02.166Z,0.90
2023-01-20T04:05:29.880Z,0.90
2023-01-20T04:07:59.983Z,0.90
2023-01-20T04:10:28.050Z,0.90
2023-01-20T04:12:54.927Z,0.90
2023-01-20T04:15:23.322Z,0.90
2023-01-20T04:17:50.063Z,0.90
2023-01-20T04:20:17.091Z,0.90
2023-01-20T04:22:57.511Z,0.90
2023-01-20T04:25:30.696Z,0.80
2023-01-20T04:27:57.492Z,0.80
2023-01-20T04:30:24.635Z,0.80
2023-01-20T04:32:51.521Z,0.70
2023-01-20T04:35:20.155Z,0.80
2023-01-20T04:37:46.987Z,0.80
2023-01-20T04:40:14.002Z,0.70
2023-01-20T04:42:40.805Z,0.80
2023-01-20T04:45:08.134Z,0.70
2023-01-20T04:47:34.953Z,0.80
2023-01-20T04:50:01.723Z,0.80
2023-01-20T04:52:28.523Z,0.80
2023-01-20T04:54:55.307Z,0.80
2023-01-20T04:57:22.069Z,0.80
2023-01-20T04:59:48.787Z,0.70
2023-01-20T05:02:15.733Z,0.70
2023-01-20T05:04:42.620Z,0.70
2023-01-20T05:07:09.588Z,0.60
2023-01-20T05:09:36.698Z,0.60
2023-01-20T05:12:03.603Z,0.60
2023-01-20T05:14:30.432Z,0.70
2023-01-20T05:16:57.211Z,0.70
2023-01-20T05:19:24.014Z,0.60
2023-01-20T05:21:50.963Z,0.60
2023-01-20T05:24:17.798Z,0.70
2023-01-20T05:26:44.559Z,0.60
2023-01-20T05:29:11.552Z,0.70
2023-01-20T05:31:38.422Z,0.70
2023-01-20T05:34:05.175Z,0.70
2023-01-20T05:36:31.996Z,0.80
2023-01-20T05:38:58.775Z,0.80
2023-01-20T05:41:25.967Z,0.80
2023-01-20T05:43:56.226Z,0.80
2023-01-20T05:46:23.522Z,0.70
2023-01-20T05:48:50.384Z,0.80
2023-01-20T05:51:17.229Z,0.80
2023-01-20T05:53:44.025Z,0.80
2023-01-20T05:56:10.832Z,0.80
2023-01-20T05:58:37.548Z,0.80
2023-01-20T06:01:09.587Z,0.80
2023-01-20T06:03:36.694Z,0.70
2023-01-20T06:06:05.610Z,0.70
2023-01-20T06:08:32.607Z,0.70
2023-01-20T06:10:59.428Z,0.70
2023-01-20T06:13:26.410Z,0.70
2023-01-20T06:15:54.817Z,0.70
2023-01-20T06:18:22.496Z,0.70
2023-01-20T06:20:49.887Z,0.80
2023-01-20T06:23:17.220Z,0.80
2023-01-20T06:25:44.359Z,0.70
2023-01-20T06:28:11.214Z,0.70
2023-01-20T06:30:38.055Z,0.70
2023-01-20T06:33:04.892Z,0.80
2023-01-20T06:35:31.674Z,0.90
2023-01-20T06:37:58.747Z,0.90
2023-01-20T06:40:25.555Z,0.90
2023-01-20T06:42:52.263Z,0.90
2023-01-20T06:45:19.035Z,0.80
2023-01-20T06:47:49.643Z,0.70
2023-01-20T06:50:16.955Z,0.70
2023-01-20T06:52:43.791Z,0.70
2023-01-20T06:55:11.275Z,0.70
2023-01-20T06:57:38.224Z,0.70
2023-01-20T07:00:05.562Z,0.70
2023-01-20T07:02:33.383Z,0.70
2023-01-20T07:05:00.279Z,0.70
2023-01-20T07:07:27.118Z,0.70
2023-01-20T07:09:57.166Z,0.80
2023-01-20T07:12:23.880Z,0.80
2023-01-20T07:14:50.716Z,0.70
2023-01-20T07:17:17.517Z,0.70
2023-01-20T07:19:44.289Z,0.70
2023-01-20T07:22:11.101Z,0.80
2023-01-20T07:24:37.932Z,0.80
2023-01-20T07:27:04.764Z,0.80
2023-01-20T07:29:31.505Z,0.80
2023-01-20T07:31:58.292Z,0.80
2023-01-20T07:34:25.181Z,0.80
2023-01-20T07:36:52.481Z,0.70
2023-01-20T07:39:19.505Z,0.60
2023-01-20T07:41:48.005Z,0.50
2023-01-20T07:44:15.677Z,0.50
2023-01-20T07:46:42.769Z,0.40
2023-01-20T07:49:12.468Z,0.40
2023-01-20T07:51:39.457Z,0.40
2023-01-20T07:54:06.652Z,0.50
2023-01-20T07:56:33.472Z,0.50
2023-01-20T07:59:00.498Z,0.50
2023-01-20T08:01:30.738Z,0.50
2023-01-20T08:03:59.048Z,0.50
2023-01-20T08:06:26.982Z,0.50
2023-01-20T08:08:56.640Z,0.60
2023-01-20T08:11:25.485Z,0.50
2023-01-20T08:13:53.132Z,0.50
2023-01-20T08:16:20.520Z,0.50
2023-01-20T08:19:07.360Z,0.40
2023-01-20T08:21:34.480Z,0.50
2023-01-20T08:24:03.874Z,0.40
2023-01-20T08:26:31.603Z,0.50
2023-01-20T08:29:06.990Z,0.50
2023-01-20T08:31:34.493Z,0.50
2023-01-20T08:34:01.339Z,0.40
2023-01-20T08:36:36.169Z,0.50
2023-01-20T08:39:07.255Z,0.50
2023-01-20T08:41:37.086Z,0.50
2023-01-20T08:44:07.097Z,0.40
2023-01-20T08:46:34.862Z,0.50
2023-01-20T08:49:02.160Z,0.60
2023-01-20T08:51:31.469Z,0.70
2023-01-20T08:53:59.064Z,0.70
2023-01-20T08:56:26.183Z,0.70
2023-01-20T08:58:53.696Z,0.60
2023-01-20T09:01:26.871Z,0.60
2023-01-20T09:04:05.461Z,0.60
2023-01-20T09:06:45.345Z,0.60
2023-01-20T09:09:13.941Z,0.50
2023-01-20T09:11:42.129Z,0.50
2023-01-20T09:14:09.492Z,0.50
2023-01-20T09:16:36.527Z,0.60
2023-01-20T09:19:03.838Z,0.60
2023-01-20T09:21:31.080Z,0.70
2023-01-20T09:23:58.044Z,0.70
2023-01-20T09:26:35.397Z,0.70
2023-01-20T09:29:03.603Z,0.70
2023-01-20T09:31:30.504Z,0.70
2023-01-20T09:33:58.081Z,0.70
2023-01-20T09:36:24.922Z,0.70
2023-01-20T09:38:53.745Z,0.80
2023-01-20T09:41:28.637Z,0.80
2023-01-20T09:44:13.970Z,0.80
2023-01-20T09:46:56.946Z,0.90
2023-01-20T09:49:34.733Z,0.90
2023-01-20T09:52:18.385Z,0.90
2023-01-20T09:54:54.930Z,0.80
2023-01-20T09:57:24.796Z,0.80
2023-01-20T10:00:00.433Z,0.80
2023-01-20T10:02:35.123Z,0.90
2023-01-20T10:05:13.560Z,1.00
2023-01-20T10:07:54.847Z,1.00
2023-01-20T10:10:35.245Z,1.00
2023-01-20T10:13:12.188Z,1.00
2023-01-20T10:15:47.358Z,1.00
2023-01-20T10:18:36.105Z,1.00
2023-01-20T10:21:20.915Z,0.90
2023-01-20T10:24:03.353Z,1.00
2023-01-20T10:26:36.312Z,1.00
2023-01-20T10:29:06.753Z,1.10
2023-01-20T10:31:38.609Z,1.10
2023-01-20T10:34:16.732Z,1.20
2023-01-20T10:36:48.077Z,1.30
2023-01-20T10:39:51.985Z,1.30
2023-01-20T10:42:20.316Z,1.30
2023-01-20T10:44:59.675Z,1.30
2023-01-20T10:48:05.404Z,1.20
2023-01-20T10:51:03.931Z,1.10
2023-01-20T10:53:59.600Z,1.10
2023-01-20T10:56:38.072Z,1.00
2023-01-20T10:59:14.122Z,1.10
2023-01-20T11:01:43.022Z,1.10
2023-01-20T11:04:20.379Z,1.30
2023-01-20T11:06:56.782Z,1.40
2023-01-20T11:09:29.986Z,1.40
2023-01-20T11:11:58.873Z,1.50
2023-01-20T11:14:26.248Z,1.50
2023-01-20T11:17:03.348Z,1.60
2023-01-20T11:19:58.412Z,1.50
2023-01-20T11:22:32.110Z,1.40
2023-01-20T11:25:17.607Z,1.40
2023-01-20T11:27:48.060Z,1.40
2023-01-20T11:30:30.833Z,1.50
2023-01-20T11:33:09.248Z,1.60
2023-01-20T11:35:36.400Z,1.70
2023-01-20T11:38:41.348Z,1.70
2023-01-20T11:41:19.808Z,1.60
2023-01-20T11:43:47.723Z,1.60
2023-01-20T11:46:33.924Z,1.60
2023-01-20T11:49:17.949Z,1.60
2023-01-20T11:51:53.837Z,1.70
2023-01-20T11:54:29.141Z,1.70
2023-01-20T11:57:05.277Z,1.80
2023-01-20T11:59:45.996Z,1.80
2023-01-20T12:02:12.962Z,1.80
2023-01-20T12:04:52.190Z,1.80
2023-01-20T12:07:50.192Z,1.80
2023-01-20T12:10:19.356Z,1.90
2023-01-20T12:13:02.880Z,1.90
2023-01-20T12:15:34.674Z,1.80
2023-01-20T12:18:09.616Z,1.80
2023-01-20T12:20:54.591Z,1.70
2023-01-20T12:23:43.751Z,1.80
2023-01-20T12:26:12.637Z,1.60
2023-01-20T12:28:42.519Z,1.60
2023-01-20T12:31:11.135Z,1.60
2023-01-20T12:33:43.081Z,1.40
2023-01-20T12:36:40.610Z,1.40
2023-01-20T12:39:32.376Z,1.40
2023-01-20T12:42:10.900Z,1.40
2023-01-20T12:44:37.911Z,1.40
2023-01-20T12:47:25.831Z,1.30
2023-01-20T12:50:14.568Z,1.30
2023-01-20T12:53:09.088Z,1.40
2023-01-20T12:55:46.737Z,1.50
2023-01-20T12:58:40.538Z,1.60
2023-01-20T13:01:42.763Z,1.70
2023-01-20T13:05:07.298Z,1.80
2023-01-20T13:07:55.873Z,1.80
2023-01-20T13:10:51.524Z,1.70
2023-01-20T13:13:51.666Z,1.80
2023-01-20T13:16:40.987Z,1.80
2023-01-20T13:19:24.541Z,1.80
2023-01-20T13:22:07.029Z,1.80
2023-01-20T13:24:35.122Z,1.90
2023-01-20T13:27:02.833Z,2.00
2023-01-20T13:29:51.666Z,2.00
2023-01-20T13:32:28.104Z,2.00
2023-01-20T13:34:56.155Z,2.10
2023-01-20T13:37:35.232Z,2.10
2023-01-20T13:40:02.422Z,2.20
2023-01-20T13:42:38.216Z,2.20
2023-01-20T13:45:14.687Z,2.30
2023-01-20T13:47:50.241Z,2.30
2023-01-20T13:50:27.728Z,2.30
2023-01-20T13:52:57.410Z,2.20
2023-01-20T13:55:50.302Z,2.20
2023-01-20T13:58:18.132Z,2.30
2023-01-20T14:00:47.559Z,2.20
2023-01-20T14:03:26.196Z,2.20
2023-01-20T14:06:00.163Z,2.20
2023-01-20T14:08:38.881Z,2.20
2023-01-20T14:11:24.458Z,2.20
2023-01-20T14:13:57.333Z,2.30
2023-01-20T14:16:28.967Z,2.20
2023-01-20T14:18:59.324Z,2.10
2023-01-20T14:21:31.192Z,2.00
2023-01-20T14:23:57.968Z,2.00
2023-01-20T14:26:27.965Z,2.00
2023-01-20T14:28:59.063Z,2.00
2023-01-20T14:31:30.658Z,2.10
2023-01-20T14:33:59.285Z,2.10
2023-01-20T14:36:29.763Z,2.00
2023-01-20T14:39:01.202Z,2.00
2023-01-20T14:41:46.868Z,1.90
2023-01-20T14:44:21.366Z,1.90
2023-01-20T14:46:56.385Z,1.80
2023-01-20T14:49:29.257Z,1.90
2023-01-20T14:51:56.395Z,1.90
2023-01-20T14:54:35.317Z,1.80
2023-01-20T14:57:22.314Z,1.90
2023-01-20T15:00:02.559Z,1.90
2023-01-20T15:02:32.390Z,2.00
2023-01-20T15:04:59.539Z,2.00
2023-01-20T15:07:27.004Z,2.00
2023-01-20T15:10:00.402Z,2.10
2023-01-20T15:12:35.989Z,2.10
2023-01-20T15:15:12.377Z,2.10
2023-01-20T15:18:11.071Z,2.10
2023-01-20T15:20:40.881Z,2.10
2023-01-20T15:23:21.099Z,2.20
2023-01-20T15:25:52.228Z,2.20
2023-01-20T15:28:29.739Z,2.10
2023-01-20T15:30:58.823Z,2.10
2023-01-20T15:33:26.239Z,2.10
2023-01-20T15:35:59.205Z,2.10
2023-01-20T15:38:30.587Z,2.10
2023-01-20T15:40:57.827Z,2.00
2023-01-20T15:43:24.594Z,1.90
2023-01-20T15:45:51.398Z,1.90
2023-01-20T15:48:22.062Z,1.90
2023-01-20T15:50:49.046Z,1.90
2023-01-20T15:53:16.357Z,1.90
2023-01-20T15:55:49.504Z,1.90
2023-01-20T15:58:25.607Z,1.90
2023-01-20T16:00:53.150Z,1.80
2023-01-20T16:03:21.286Z,1.80
2023-01-20T16:05:49.592Z,1.80
2023-01-20T16:08:22.330Z,1.70
2023-01-20T16:10:49.355Z,1.70
2023-01-20T16:13:16.435Z,1.70
2023-01-20T16:15:43.685Z,1.70
2023-01-20T16:18:17.753Z,1.70
2023-01-20T16:20:47.006Z,1.70
2023-01-20T16:23:14.007Z,1.80
2023-01-20T16:25:41.106Z,1.80
2023-01-20T16:28:14.523Z,1.70
2023-01-20T16:30:42.272Z,1.70
2023-01-20T16:33:21.107Z,1.80
2023-01-20T16:35:50.191Z,1.70
2023-01-20T16:38:19.239Z,1.70
2023-01-20T16:40:52.392Z,1.70
2023-01-20T16:43:22.324Z,1.70
2023-01-20T16:45:51.042Z,1.60
2023-01-20T16:48:18.068Z,1.70
2023-01-20T16:50:44.866Z,1.70
2023-01-20T16:53:13.449Z,1.70
2023-01-20T16:55:43.831Z,1.80
2023-01-20T16:58:11.057Z,1.80
2023-01-20T17:00:38.349Z,1.70
2023-01-20T17:03:05.579Z,1.70
2023-01-20T17:05:32.519Z,1.70
2023-01-20T17:07:59.478Z,1.70
2023-01-20T17:10:28.629Z,1.70
2023-01-20T17:12:56.807Z,1.70
2023-01-20T17:15:24.692Z,1.70
2023-01-20T17:17:54.770Z,1.70
2023-01-20T17:20:22.278Z,1.70
2023-01-20T17:22:48.997Z,1.70
2023-01-20T17:25:17.685Z,1.60
2023-01-20T17:27:44.812Z,1.40
2023-01-20T17:30:11.733Z,1.30
2023-01-20T17:32:38.465Z,1.20
2023-01-20T17:35:05.837Z,1.20
2023-01-20T17:37:32.556Z,1.10
2023-01-20T17:39:59.338Z,1.00
2023-01-20T17:42:26.008Z,0.80
2023-01-20T17:44:52.686Z,0.80
2023-01-20T17:47:19.405Z,0.80
2023-01-20T17:49:46.009Z,0.60
2023-01-20T17:52:12.943Z,0.60
2023-01-20T17:54:40.693Z,0.70
2023-01-20T17:57:07.354Z,0.70
2023-01-20T17:59:34.038Z,0.80
2023-01-20T18:02:00.722Z,0.80
2023-01-20T18:04:27.453Z,0.90
2023-01-20T18:06:54.123Z,1.00
2023-01-20T18:09:20.923Z,1.00
2023-01-20T18:11:47.701Z,1.00
2023-01-20T18:14:14.736Z,1.00
2023-01-20T18:16:41.818Z,0.90
2023-01-20T18:19:11.934Z,0.90
2023-01-20T18:21:39.057Z,0.90
2023-01-20T18:24:07.528Z,1.00
2023-01-20T18:26:36.179Z,1.00
2023-01-20T18:29:06.413Z,1.00
2023-01-20T18:31:34.831Z,1.00
2023-01-20T18:34:04.545Z,1.00
2023-01-20T18:36:38.889Z,1.10
2023-01-20T18:39:12.167Z,1.10
2023-01-20T18:41:38.888Z,1.10
2023-01-20T18:44:07.275Z,0.90
2023-01-20T18:46:34.979Z,0.60
2023-01-20T18:49:01.949Z,0.70
2023-01-20T18:51:29.768Z,0.70
2023-01-20T18:54:05.594Z,0.80
2023-01-20T18:56:33.470Z,0.80
2023-01-20T18:59:01.297Z,0.80
2023-01-20T19:01:30.523Z,0.70
2023-01-20T19:03:57.446Z,0.80
2023-01-20T19:06:29.865Z,0.80
2023-01-20T19:08:58.370Z,0.80
2023-01-20T19:11:28.448Z,0.80
2023-01-20T19:13:55.876Z,0.80
2023-01-20T19:16:25.564Z,0.80
2023-01-20T19:18:58.664Z,0.80
2023-01-20T19:21:25.885Z,0.80
2023-01-20T19:23:54.790Z,0.80
2023-01-20T19:26:23.506Z,0.80
2023-01-20T19:28:57.183Z,0.80
2023-01-20T19:31:24.803Z,0.80
2023-01-20T19:33:51.784Z,0.60
2023-01-20T19:36:19.418Z,0.40
2023-01-20T19:38:46.664Z,0.30
2023-01-20T19:41:19.174Z,0.30
2023-01-20T19:43:46.280Z,0.40
2023-01-20T19:46:15.706Z,0.50
2023-01-20T19:48:42.722Z,0.60
2023-01-20T19:51:12.747Z,0.60
2023-01-20T19:53:40.051Z,0.60
2023-01-20T19:56:18.631Z,0.60
2023-01-20T19:58:47.281Z,0.40
2023-01-20T20:01:17.335Z,0.40
2023-01-20T20:03:44.737Z,0.40
2023-01-20T20:06:30.280Z,0.30
2023-01-20T20:09:02.227Z,0.10
2023-01-20T20:11:30.846Z,0.10
2023-01-20T20:13:59.715Z,0.10
2023-01-20T20:16:29.299Z,0.10
2023-01-20T20:18:56.798Z,0.20
2023-01-20T20:21:24.294Z,0.30
2023-01-20T20:23:52.672Z,0.30
2023-01-20T20:26:22.302Z,0.10
2023-01-20T20:28:49.763Z,0.10
2023-01-20T20:31:16.974Z,-0.10
2023-01-20T20:33:43.772Z,-0.10
2023-01-20T20:36:10.823Z,-0.10
2023-01-20T20:38:37.560Z,-0.10
2023-01-20T20:41:05.941Z,-0.30
2023-01-20T20:43:32.702Z,-0.30
2023-01-20T20:46:00.974Z,-0.40
2023-01-20T20:48:28.419Z,-0.30
2023-01-20T20:50:55.282Z,-0.30
2023-01-20T20:53:22.366Z,-0.20
2023-01-20T20:55:49.080Z,-0.10
2023-01-20T20:58:16.006Z,0.00
2023-01-20T21:00:43.101Z,0.00
2023-01-20T21:03:09.873Z,0.00
2023-01-20T21:05:36.682Z,0.00
2023-01-20T21:08:03.720Z,0.00
2023-01-20T21:10:30.413Z,-0.10
2023-01-20T21:12:57.042Z,-0.10
2023-01-20T21:15:23.849Z,-0.10
2023-01-20T21:17:50.544Z,-0.10
2023-01-20T21:20:17.771Z,-0.20
2023-01-20T21:22:44.571Z,-0.20
2023-01-20T21:25:11.268Z,-0.20
2023-01-20T21:27:38.029Z,-0.10
2023-01-20T21:30:05.265Z,-0.20
2023-01-20T21:32:31.917Z,-0.30
2023-01-20T21:34:58.881Z,-0.20
2023-01-20T21:37:25.526Z,-0.20
2023-01-20T21:39:52.202Z,-0.10
2023-01-20T21:42:18.863Z,-0.10
2023-01-20T21:44:45.550Z,0.00
2023-01-20T21:47:12.235Z,0.00
2023-01-20T21:49:38.915Z,0.00
2023-01-20T21:52:05.671Z,-0.10
2023-01-20T21:54:33.637Z,-0.30
2023-01-20T21:57:01.860Z,-0.30
2023-01-20T21:59:28.587Z,-0.20
2023-01-20T22:01:55.419Z,-0.10
2023-01-20T22:04:22.148Z,-0.10
2023-01-20T22:06:48.985Z,-0.20
2023-01-20T22:09:15.748Z,-0.40
2023-01-20T22:11:42.386Z,-0.60
2023-01-20T22:14:10.020Z,-0.80
2023-01-20T22:16:36.925Z,-1.00
2023-01-20T22:19:03.796Z,-0.90
2023-01-20T22:21:31.965Z,-0.90
2023-01-20T22:23:58.863Z,-0.90
2023-01-20T22:26:25.679Z,-0.90
2023-01-20T22:28:53.350Z,-1.00
2023-01-20T22:31:20.191Z,-1.10
2023-01-20T22:33:51.757Z,-1.10
2023-01-20T22:36:20.080Z,-1.00
2023-01-20T22:38:48.564Z,-0.90
2023-01-20T22:41:16.072Z,-0.90
2023-01-20T22:43:43.011Z,-0.90
2023-01-20T22:46:12.835Z,-0.80
2023-01-20T22:48:40.319Z,-0.80
2023-01-20T22:51:13.344Z,-0.70
2023-01-20T22:53:40.734Z,-0.60
2023-01-20T22:56:12.484Z,-0.50
2023-01-20T22:58:39.846Z,-0.50
2023-01-20T23:01:15.994Z,-0.50
2023-01-20T23:03:43.823Z,-0.50
2023-01-20T23:06:11.661Z,-0.50
2023-01-20T23:08:39.106Z,-0.70
2023-01-20T23:11:14.302Z,-0.80
2023-01-20T23:13:41.627Z,-0.80
2023-01-20T23:16:12.950Z,-0.80
2023-01-20T23:18:39.856Z,-0.80
2023-01-20T23:21:06.991Z,-0.80
2023-01-20T23:23:34.407Z,-0.80
2023-01-20T23:26:07.996Z,-0.80
2023-01-20T23:28:34.973Z,-0.70
2023-01-20T23:31:07.698Z,-0.70
2023-01-20T23:33:34.805Z,-0.90
2023-01-20T23:36:10.509Z,-1.00
2023-01-20T23:38:37.159Z,-1.00
2023-01-20T23:41:04.545Z,-1.00
2023-01-20T23:43:32.298Z,-1.00
2023-01-20T23:46:05.269Z,-0.90
2023-01-20T23:48:33.277Z,-0.90
2023-01-20T23:51:00.522Z,-0.90
2023-01-20T23:53:29.055Z,-0.80
2023-01-20T23:56:02.319Z,-0.70
2023-01-20T23:58:29.420Z,-0.70
